sensor_id;sensor_type;location;lat;lon;timestamp;P1;durP1;ratioP1;P2;durP2;ratioP2
63296;SDS011;49419;51.716;-4.948;2022-12-18T14:03:28;13.52;;;12.63;;
63296;SDS011;49419;51.716;-4.948;2022-12-18T14:12:50;14.02;;;13.02;;
63296;SDS011;49419;51.716;-4.948;2022-12-18T14:16:02;13.50;;;12.60;;
63296;SDS011;49419;51.716;-4.948;2022-12-18T14:19:21;13.77;;;12.75;;
63296;SDS011;49419;51.716;-4.948;2022-12-18T14:21:54;13.50;;;12.50;;
63296;SDS011;49419;51.716;-4.948;2022-12-18T14:24:26;13.50;;;12.60;;
63296;SDS011;49419;51.716;-4.948;2022-12-18T14:36:31;13.82;;;12.70;;
63296;SDS011;49419;51.716;-4.948;2022-12-18T14:39:12;13.80;;;12.68;;
63296;SDS011;49419;51.716;-4.948;2022-12-18T14:41:45;13.93;;;12.80;;
63296;SDS011;49419;51.716;-4.948;2022-12-18T14:44:50;14.45;;;13.02;;
63296;SDS011;49419;51.716;-4.948;2022-12-18T14:47:58;14.25;;;12.77;;
63296;SDS011;49419;51.716;-4.948;2022-12-18T14:54:49;13.60;;;12.55;;
63296;SDS011;49419;51.716;-4.948;2022-12-18T14:58:03;13.65;;;12.52;;
63296;SDS011;49419;51.716;-4.948;2022-12-18T15:00:30;15.07;;;13.15;;
63296;SDS011;49419;51.716;-4.948;2022-12-18T15:03:01;14.38;;;13.07;;
63296;SDS011;49419;51.716;-4.948;2022-12-18T15:05:38;13.70;;;12.60;;
63296;SDS011;49419;51.716;-4.948;2022-12-18T15:08:42;14.55;;;13.30;;
63296;SDS011;49419;51.716;-4.948;2022-12-18T15:25:37;14.02;;;12.95;;
63296;SDS011;49419;51.716;-4.948;2022-12-18T15:28:48;14.73;;;13.35;;
63296;SDS011;49419;51.716;-4.948;2022-12-18T15:31:36;14.07;;;12.88;;
63296;SDS011;49419;51.716;-4.948;2022-12-18T15:34:40;13.80;;;12.77;;
63296;SDS011;49419;51.716;-4.948;2022-12-18T15:37:18;15.20;;;13.70;;
63296;SDS011;49419;51.716;-4.948;2022-12-18T15:40:22;14.75;;;13.43;;
63296;SDS011;49419;51.716;-4.948;2022-12-18T15:43:05;14.90;;;13.60;;
63296;SDS011;49419;51.716;-4.948;2022-12-18T15:49:17;14.05;;;12.95;;
63296;SDS011;49419;51.716;-4.948;2022-12-18T16:07:44;15.57;;;13.52;;
63296;SDS011;49419;51.716;-4.948;2022-12-18T16:14:24;14.50;;;13.20;;
63296;SDS011;49419;51.716;-4.948;2022-12-18T16:16:53;15.95;;;13.18;;
63296;SDS011;49419;51.716;-4.948;2022-12-18T16:19:24;14.18;;;12.73;;
63296;SDS011;49419;51.716;-4.948;2022-12-18T16:21:59;15.75;;;13.65;;
63296;SDS011;49419;51.716;-4.948;2022-12-18T16:28:06;13.82;;;12.63;;
63296;SDS011;49419;51.716;-4.948;2022-12-18T16:33:13;13.88;;;12.55;;
63296;SDS011;49419;51.716;-4.948;2022-12-18T16:35:39;13.35;;;12.30;;
63296;SDS011;49419;51.716;-4.948;2022-12-18T16:38:47;13.65;;;12.55;;
63296;SDS011;49419;51.716;-4.948;2022-12-18T16:41:28;14.02;;;12.75;;
63296;SDS011;49419;51.716;-4.948;2022-12-18T16:44:15;13.30;;;12.18;;
63296;SDS011;49419;51.716;-4.948;2022-12-18T16:46:53;13.75;;;12.55;;
63296;SDS011;49419;51.716;-4.948;2022-12-18T16:58:27;13.40;;;12.40;;
63296;SDS011;49419;51.716;-4.948;2022-12-18T17:00:53;13.45;;;12.45;;
63296;SDS011;49419;51.716;-4.948;2022-12-18T17:03:20;13.50;;;12.50;;
63296;SDS011;49419;51.716;-4.948;2022-12-18T17:12:07;13.07;;;12.18;;
63296;SDS011;49419;51.716;-4.948;2022-12-18T17:14:46;13.53;;;12.60;;
63296;SDS011;49419;51.716;-4.948;2022-12-18T17:19:45;13.10;;;12.20;;
63296;SDS011;49419;51.716;-4.948;2022-12-18T17:22:17;13.65;;;12.45;;
63296;SDS011;49419;51.716;-4.948;2022-12-18T17:24:51;13.27;;;12.27;;
63296;SDS011;49419;51.716;-4.948;2022-12-18T17:27:50;13.37;;;12.20;;
63296;SDS011;49419;51.716;-4.948;2022-12-18T17:30:21;13.30;;;12.30;;
63296;SDS011;49419;51.716;-4.948;2022-12-18T17:33:31;13.00;;;12.10;;
63296;SDS011;49419;51.716;-4.948;2022-12-18T17:42:17;13.48;;;12.38;;
63296;SDS011;49419;51.716;-4.948;2022-12-18T17:45:05;13.35;;;12.35;;
63296;SDS011;49419;51.716;-4.948;2022-12-18T17:48:14;13.52;;;12.45;;
63296;SDS011;49419;51.716;-4.948;2022-12-18T17:53:38;13.75;;;12.63;;
63296;SDS011;49419;51.716;-4.948;2022-12-18T17:56:37;13.98;;;12.80;;
63296;SDS011;49419;51.716;-4.948;2022-12-18T18:05:53;13.23;;;12.13;;
63296;SDS011;49419;51.716;-4.948;2022-12-18T18:08:35;13.30;;;12.05;;
63296;SDS011;49419;51.716;-4.948;2022-12-18T18:11:54;13.95;;;12.63;;
63296;SDS011;49419;51.716;-4.948;2022-12-18T18:21:08;14.13;;;13.00;;
63296;SDS011;49419;51.716;-4.948;2022-12-18T18:23:44;14.40;;;12.85;;
63296;SDS011;49419;51.716;-4.948;2022-12-18T18:26:34;14.02;;;12.82;;
63296;SDS011;49419;51.716;-4.948;2022-12-18T18:33:00;14.45;;;12.90;;
63296;SDS011;49419;51.716;-4.948;2022-12-18T18:41:05;13.98;;;12.80;;
63296;SDS011;49419;51.716;-4.948;2022-12-18T18:44:27;13.93;;;12.70;;
63296;SDS011;49419;51.716;-4.948;2022-12-18T18:50:32;14.20;;;13.10;;
63296;SDS011;49419;51.716;-4.948;2022-12-18T18:59:29;14.23;;;12.93;;
63296;SDS011;49419;51.716;-4.948;2022-12-18T19:02:25;14.50;;;13.20;;
63296;SDS011;49419;51.716;-4.948;2022-12-18T19:08:02;17.92;;;13.48;;
63296;SDS011;49419;51.716;-4.948;2022-12-18T19:10:54;15.70;;;14.00;;
63296;SDS011;49419;51.716;-4.948;2022-12-18T19:17:26;19.40;;;14.02;;
63296;SDS011;49419;51.716;-4.948;2022-12-18T19:20:22;16.05;;;14.40;;
63296;SDS011;49419;51.716;-4.948;2022-12-18T19:23:01;15.38;;;13.88;;
63296;SDS011;49419;51.716;-4.948;2022-12-18T19:25:29;16.80;;;13.52;;
63296;SDS011;49419;51.716;-4.948;2022-12-18T19:31:16;16.40;;;14.20;;
63296;SDS011;49419;51.716;-4.948;2022-12-18T19:34:28;15.77;;;14.20;;
63296;SDS011;49419;51.716;-4.948;2022-12-18T19:37:14;15.88;;;13.90;;
63296;SDS011;49419;51.716;-4.948;2022-12-18T19:39:51;16.00;;;14.30;;
63296;SDS011;49419;51.716;-4.948;2022-12-18T19:42:39;15.48;;;13.85;;
63296;SDS011;49419;51.716;-4.948;2022-12-18T19:48:04;15.55;;;13.85;;
63296;SDS011;49419;51.716;-4.948;2022-12-18T19:51:14;15.52;;;13.93;;
63296;SDS011;49419;51.716;-4.948;2022-12-18T19:57:44;14.90;;;13.60;;
63296;SDS011;49419;51.716;-4.948;2022-12-18T20:00:22;15.70;;;13.88;;
63296;SDS011;49419;51.716;-4.948;2022-12-18T20:05:48;17.25;;;14.65;;
63296;SDS011;49419;51.716;-4.948;2022-12-18T20:08:29;17.45;;;14.45;;
63296;SDS011;49419;51.716;-4.948;2022-12-18T20:11:08;19.13;;;14.98;;
63296;SDS011;49419;51.716;-4.948;2022-12-18T20:14:16;23.88;;;15.20;;
63296;SDS011;49419;51.716;-4.948;2022-12-18T20:16:47;21.73;;;15.70;;
63296;SDS011;49419;51.716;-4.948;2022-12-18T20:21:51;25.70;;;15.82;;
63296;SDS011;49419;51.716;-4.948;2022-12-18T20:24:17;26.88;;;16.30;;
63296;SDS011;49419;51.716;-4.948;2022-12-18T20:27:29;23.90;;;15.45;;
63296;SDS011;49419;51.716;-4.948;2022-12-18T20:33:20;27.23;;;16.10;;
63296;SDS011;49419;51.716;-4.948;2022-12-18T20:36:45;21.77;;;15.52;;
63296;SDS011;49419;51.716;-4.948;2022-12-18T20:45:39;26.83;;;16.33;;
63296;SDS011;49419;51.716;-4.948;2022-12-18T20:48:06;24.05;;;15.93;;
63296;SDS011;49419;51.716;-4.948;2022-12-18T20:50:45;25.42;;;16.17;;
63296;SDS011;49419;51.716;-4.948;2022-12-18T20:53:35;21.83;;;15.18;;
63296;SDS011;49419;51.716;-4.948;2022-12-18T20:56:06;21.52;;;15.48;;
63296;SDS011;49419;51.716;-4.948;2022-12-18T20:59:21;22.77;;;15.85;;
63296;SDS011;49419;51.716;-4.948;2022-12-18T21:01:49;20.70;;;14.98;;
63296;SDS011;49419;51.716;-4.948;2022-12-18T21:04:25;20.50;;;14.88;;
63296;SDS011;49419;51.716;-4.948;2022-12-18T21:10:31;22.33;;;14.88;;
63296;SDS011;49419;51.716;-4.948;2022-12-18T21:13:06;16.65;;;14.40;;
63296;SDS011;49419;51.716;-4.948;2022-12-18T21:16:30;23.27;;;15.20;;
63296;SDS011;49419;51.716;-4.948;2022-12-18T21:19:14;19.40;;;14.68;;
63296;SDS011;49419;51.716;-4.948;2022-12-18T21:22:09;16.02;;;14.40;;
63296;SDS011;49419;51.716;-4.948;2022-12-18T21:24:45;18.02;;;14.65;;
63296;SDS011;49419;51.716;-4.948;2022-12-18T21:27:12;16.73;;;14.70;;
63296;SDS011;49419;51.716;-4.948;2022-12-18T21:29:43;16.17;;;14.40;;
63296;SDS011;49419;51.716;-4.948;2022-12-18T21:32:38;15.68;;;14.02;;
63296;SDS011;49419;51.716;-4.948;2022-12-18T21:35:07;15.20;;;13.60;;
63296;SDS011;49419;51.716;-4.948;2022-12-18T21:40:22;14.95;;;13.48;;
63296;SDS011;49419;51.716;-4.948;2022-12-18T21:42:54;14.82;;;13.52;;
63296;SDS011;49419;51.716;-4.948;2022-12-18T21:48:14;16.27;;;14.48;;
63296;SDS011;49419;51.716;-4.948;2022-12-18T21:59:37;16.02;;;14.02;;
63296;SDS011;49419;51.716;-4.948;2022-12-18T22:02:01;16.98;;;14.30;;
63296;SDS011;49419;51.716;-4.948;2022-12-18T22:04:34;19.55;;;14.50;;
63296;SDS011;49419;51.716;-4.948;2022-12-18T22:07:13;17.27;;;14.73;;
63296;SDS011;49419;51.716;-4.948;2022-12-18T22:09:44;16.25;;;14.73;;
63296;SDS011;49419;51.716;-4.948;2022-12-18T22:12:18;18.92;;;15.18;;
63296;SDS011;49419;51.716;-4.948;2022-12-18T22:15:38;22.52;;;15.27;;
63296;SDS011;49419;51.716;-4.948;2022-12-18T22:18:24;18.30;;;14.68;;
63296;SDS011;49419;51.716;-4.948;2022-12-18T22:21:02;19.02;;;14.25;;
63296;SDS011;49419;51.716;-4.948;2022-12-18T22:24:24;22.77;;;14.80;;
63296;SDS011;49419;51.716;-4.948;2022-12-18T22:27:02;20.13;;;15.30;;
63296;SDS011;49419;51.716;-4.948;2022-12-18T22:29:59;20.70;;;14.95;;
63296;SDS011;49419;51.716;-4.948;2022-12-18T22:33:03;23.35;;;15.30;;
63296;SDS011;49419;51.716;-4.948;2022-12-18T22:36:10;23.38;;;15.18;;
63296;SDS011;49419;51.716;-4.948;2022-12-18T22:44:26;20.95;;;14.85;;
63296;SDS011;49419;51.716;-4.948;2022-12-18T22:46:56;24.38;;;15.32;;
63296;SDS011;49419;51.716;-4.948;2022-12-18T22:49:46;26.73;;;15.75;;
63296;SDS011;49419;51.716;-4.948;2022-12-18T22:52:22;27.73;;;16.63;;
63296;SDS011;49419;51.716;-4.948;2022-12-18T22:55:20;21.25;;;15.93;;
63296;SDS011;49419;51.716;-4.948;2022-12-18T22:58:01;25.77;;;15.95;;
63296;SDS011;49419;51.716;-4.948;2022-12-18T23:00:40;26.50;;;16.15;;
63296;SDS011;49419;51.716;-4.948;2022-12-18T23:03:05;26.48;;;15.95;;
63296;SDS011;49419;51.716;-4.948;2022-12-18T23:05:35;28.77;;;16.17;;
63296;SDS011;49419;51.716;-4.948;2022-12-18T23:08:18;27.20;;;16.27;;
63296;SDS011;49419;51.716;-4.948;2022-12-18T23:10:59;28.95;;;16.63;;
63296;SDS011;49419;51.716;-4.948;2022-12-18T23:13:39;29.23;;;16.30;;
63296;SDS011;49419;51.716;-4.948;2022-12-18T23:19:08;27.92;;;15.80;;
63296;SDS011;49419;51.716;-4.948;2022-12-18T23:24:16;29.90;;;16.05;;
63296;SDS011;49419;51.716;-4.948;2022-12-18T23:27:14;27.25;;;16.40;;
63296;SDS011;49419;51.716;-4.948;2022-12-18T23:30:13;27.25;;;16.27;;
63296;SDS011;49419;51.716;-4.948;2022-12-18T23:32:40;26.10;;;16.15;;
63296;SDS011;49419;51.716;-4.948;2022-12-18T23:35:12;30.33;;;16.50;;
63296;SDS011;49419;51.716;-4.948;2022-12-18T23:37:46;26.60;;;15.93;;
63296;SDS011;49419;51.716;-4.948;2022-12-18T23:40:23;28.27;;;15.98;;
63296;SDS011;49419;51.716;-4.948;2022-12-18T23:45:25;24.80;;;15.45;;
63296;SDS011;49419;51.716;-4.948;2022-12-18T23:48:27;21.52;;;15.98;;
63296;SDS011;49419;51.716;-4.948;2022-12-18T23:54:07;22.10;;;15.52;;
63296;SDS011;49419;51.716;-4.948;2022-12-18T23:56:33;24.95;;;15.52;;
63296;SDS011;49419;51.716;-4.948;2022-12-18T23:59:00;26.13;;;15.35;;
